Henry Hunter

Olheiro-Chefe - Brentford
6 Fev 2028
Domingo
Processo

Personalidade

Adaptabilidade (11) Ambição (10) Controvérsia (7) Lealdade (1) Pressão (6) Profissionalismo (3) Espírito Esportivo (20) Temperamento (15)

Perfil

Estilo de Treinamento Democrático
Licença Nacional B
Determinação 10
Gestão de Pessoas 14
Motivação 13
Disciplina 11
Satisfação no Trabalho
100%
Fadiga
0%
Função Olheiro-Chefe
Salário 71.9K p/s
Contrato 14.03.2029

Desempenho

Comportamento Bom
Eficácia do Treinamento
50%
Desenvolvimento do Jogador
55%
Prevenção de Lesões
60%
Implementação Tática
70%

Eventos Recentes

Participou de uma reunião de recrutamento agora
Recomendou um alvo de transferência agora
Recomendou um alvo de transferência agora
Recomendou um alvo de transferência agora
Recomendou um alvo de transferência 7d atrás
Recomendou um alvo de transferência 7d atrás
Recomendou um alvo de transferência 7d atrás
Participou de uma reunião de recrutamento 7d atrás

Monitorando agora

90
Jogador Clube Status Habilidade Confiança Observado Última observação Último voto
Dmitry Pestryakov Akron Ativo 117 / 127 40% 1 24.01.2028 -
Filipe Sousa Porto Ativo 101 / 115 40% 1 24.01.2028 -
Jenson Jones Penafiel Ativo 101 / 110 40% 1 24.01.2028 -
Noa Mikić HNK Gorica Ativo 112 / 128 40% 1 17.01.2028 -
Juan Giménez Rosario Central Ativo 118 / 115 40% 1 17.01.2028 -
Harbor Miller LA Galaxy Ativo 99 / 98 40% 1 17.01.2028 -
Mads Abrahamsen Druzhba Ativo 91 / 85 40% 2 10.01.2028 -
Eduardo Fernandes Benfica Perdido 116 / 113 40% 1 10.01.2028 -
Kevin Fulham Ativo 153 / 160 86% 1 07.01.2028 Aprovar
Jorrel Hato Chelsea Ativo 153 / 162 40% 2 01.01.2028 -
Sebastián Arancibia Universidad Catolica Ativo 104 / 111 40% 1 01.01.2028 -
Bradley de Jesus Chaves Ativo 100 / 96 40% 1 01.01.2028 -
Joel Medina Osasuna Ativo 113 / 122 40% 2 16.08.2027 -
Tobia Mogentale Altamura Ativo 93 / 98 40% 1 09.08.2027 -
Ollie Scarles West Ham United Ativo 134 / 148 40% 11 27.07.2027 -
Francisco Triver River Plate Ativo 87 / 112 40% 1 26.07.2027 -
Alexis Fretes Libertad Ativo 114 / 103 40% 3 23.07.2027 -
Valentin Atangana Al-Ahli Ativo 128 / 124 40% 6 21.07.2027 -
Amin Nabizada Watford Ativo 108 / 105 40% 1 19.07.2027 -
Matías Batule Mitre Ativo 88 / 91 40% 1 16.07.2027 -
Román Albornoz Temperley Ativo 91 / 108 40% 1 16.07.2027 -
Tommaso Rubino Fiorentina Ativo 108 / 111 40% 1 15.07.2027 -
Hassan Beja AFC Leopards Ativo 82 / 76 40% 1 15.07.2027 Mais informações
Dujuan Richards Chelsea Ativo 106 / 114 40% 1 14.07.2027 -
Mohamadou Kanté West Ham United Ativo 119 / 131 40% 4 12.07.2027 -
Nazareno Petrecca Nueva Chicago Ativo 99 / 110 40% 1 05.07.2027 -
Petik Manukyan Urartu Ativo 102 / 98 40% 2 29.06.2027 -
Kian Best Chelsea Ativo 104 / 116 40% 1 27.06.2027 -
George Abbott Tottenham Ativo 110 / 126 40% 1 23.06.2027 -
Isaac Moore Paris FC Ativo 88 / 97 40% 1 23.06.2027 -
Damola Ajayi Tottenham Ativo 118 / 117 40% 1 23.06.2027 -
Lucas Velásquez Huachipato Ativo 98 / 114 40% 1 21.06.2027 -
Braian Mansilla Talleres Ativo 82 / 91 40% 1 20.06.2027 -
Isaac Holland Groningen Ativo 97 / 106 40% 1 20.06.2027 -
Nathan Tinsdale Jihlava Ativo 95 / 92 40% 1 19.06.2027 -
Rodrigo Arnay Güemes Ativo 92 / 81 40% 2 17.06.2027 -
Alex Tóth Bournemouth Ativo 123 / 126 40% 1 17.06.2027 -
Isaiah Dada-Mascoll Zbrojovka Brno Ativo 97 / 88 40% 1 16.06.2027 -
Mohamed Bolivar Barranquilla Ativo 82 / 106 40% 1 15.06.2027 -
Luca Bărbulescu Ohod Ativo 85 / 97 40% 1 15.06.2027 -
Ishé Samuels-Smith Chelsea Ativo 120 / 127 40% 1 13.06.2027 -
Saïmon Bouabré Al-Hilal Ativo 133 / 118 40% 4 12.06.2027 Observar
Zakaria Taifi Orlando City Ativo 89 / 93 40% 1 12.06.2027 -
Paulo Cardoso Sporting CP Ativo 96 / 95 40% 1 12.06.2027 -
Ahmad Lamido Wikki Tourists Ativo 81 / 98 40% 1 08.06.2027 -
Olaniyi Saheed Kwara United Ativo 90 / 99 40% 1 06.06.2027 -
Martim Cunha Porto Ativo 105 / 101 40% 1 06.06.2027 -
Chris Rigg Bournemouth Ativo 128 / 145 40% 3 02.06.2027 -
Alejandro Leiva Almería Ativo 99 / 100 40% 1 02.06.2027 -
Nupe Godstime Bayelsa United Ativo 79 / 88 40% 1 02.06.2027 -
Jack Shorrock Port Vale Ativo 93 / 93 40% 1 30.01.2027 -
Jeffrey Annan Hasaacas Ativo 93 / 83 40% 1 29.01.2027 -
Jaydee Canvot Crystal Palace Ativo 132 / 137 40% 1 28.01.2027 -
Godwin Oham Warri Wolves Ativo 85 / 91 40% 1 28.01.2027 -
Josh Torquato FC Dallas Ativo 84 / 85 40% 1 28.01.2027 -
Vahid Rezaeian Rah Ahan Ativo 92 / 98 40% 1 28.01.2027 -
Rafael Camacho Sporting CP Ativo 87 / 95 40% 1 28.01.2027 -
José Paradela PSV Ativo 137 / 137 67% 1 25.01.2027 Aprovar
Kwadwo Partey Liberty Professionals Ativo 86 / 83 40% 1 25.01.2027 -
Bobby Clark Derby County Ativo 122 / 130 40% 5 23.01.2027 -
George Paaku Hearts of Oak Ativo 78 / 96 40% 1 23.01.2027 -
Konstantin Voinkov Zenit Ativo 83 / 85 40% 1 21.01.2027 -
Joseph Abah Bendel Insurance Ativo 79 / 80 40% 1 21.01.2027 -
Edvin Austbø Viking Ativo 126 / 121 40% 2 19.01.2027 -
Wisdom Udom Bendel Insurance Ativo 85 / 82 40% 1 19.01.2027 -
Joseph Paintsil Feyenoord Ativo 130 / 130 66% 1 18.01.2027 Aprovar
Matheus Gonçalves Al-Ahli Ativo 126 / 132 40% 1 18.01.2027 -
Olívio Tomé Benfica Ativo 107 / 104 40% 1 15.01.2027 -
Mert Kömür Bayer Leverkusen Ativo 125 / 131 40% 1 14.01.2027 -
Santiago Sosa Yung Valencia Ativo 121 / 120 40% 1 14.01.2027 -
Williams Yikat Kun Khalifat Ativo 84 / 83 40% 1 12.01.2027 -
Gabriel Lekan Kun Khalifat Ativo 79 / 101 40% 1 11.01.2027 -
Onyia Henry Bendel Insurance Ativo 81 / 90 40% 1 10.01.2027 -
Ritsu Doan Barcelona Ativo 148 / 148 68% 1 07.01.2027 Aprovar
Lucas Agazzi Athletic Bilbao Ativo 125 / 121 40% 1 06.01.2027 -
Kyriani Sabbe Club Brugge Ativo 122 / 123 40% 1 05.01.2027 -
Ezekiel Kwame Alladoh Philadelphia Union Ativo 110 / 127 40% 1 11.08.2026 -
Bruno Caicedo Vancouver Whitecaps Ativo 112 / 117 40% 1 10.08.2026 -
Ricky Louis FC Dallas Ativo 84 / 98 40% 1 10.08.2026 -
Abubakar Garba Nasarawa United Ativo 86 / 93 40% 1 09.08.2026 -
Sidiki Chérif Coventry City Ativo 116 / 129 40% 1 09.08.2026 -
Will Lankshear Middlesbrough Ativo 116 / 121 40% 1 08.08.2026 -
Chimobi Igwilo Rangers International Ativo 88 / 87 40% 1 05.08.2026 -
Themba Tau Ajax Cape Town Ativo 95 / 102 40% 1 04.08.2026 -
Dániel Pintér Inter Miami CF Ativo 86 / 99 40% 1 04.08.2026 -
Idan Toklomati Charlotte Football Club Ativo 112 / 120 40% 1 03.08.2026 -
Harrison Armstrong Everton Ativo 123 / 140 40% 1 03.08.2026 -
Osvald Søe San Diego Football Club Ativo 98 / 90 40% 1 03.08.2026 -
Mbekezeli Mbokazi Chicago Fire Ativo 118 / 127 40% 1 03.08.2026 -
Augustine Nwaorisa Enyimba Ativo 83 / 88 40% 1 02.08.2026 -